Lewisville, Texas
Current Conditions -  °F | °C
As of 7:53 AM on Saturday 22 Nov 2014 (Local Time) from KDFW Reporting Station
Drizzle Drizzle  
Wind Chill: 13°   Ceiling: 400
Heat Index: 13°   Visibility: 0.75mi
Dew Point: 13°   Wind: 16mph
Humidity: 100%   Direction: 140°SE
Pressure: 30.03"   Gusts: NA
Location:  33.05°N, 96.99°W
Report Text: KDFW 221353Z 14014KT 3/4SM R17C/P6000FT -DZ BR OVC004 13/13 A3003 RMK AO2 SFC VIS 1 1/2 DZB53 SLP166 OCNL LTGIC DSNT W AND NW P0000 T01330133
Loading
Personal Weather Stations






























Interactive Weather Map New forecast layout! Learn more

10-Day Weather Forecast

Advertisements
Track Severe Weather on mobile